Time;durP1;ratioP1;P1;durP2;ratioP2;P2;SDS_P1;SDS_P2;PMS_P1;PMS_P2;Temp;Humidity;BMP_temperature;BMP_pressure;BME280_temperature;BME280_humidity;BME280_pressure;Samples;Min_cycle;Max_cycle;Signal;HPM_P1;HPM_P2
2022/06/03 00:01:55;;;;;;;16.35;8.38;;;10.90;99.90;;;;;;10408621;28;20034;-85
2022/06/03 00:07:02;;;;;;;13.73;8.15;;;10.90;99.90;;;;;;10398467;28;20026;-84
2022/06/03 00:12:09;;;;;;;11.45;7.85;;;11.00;99.90;;;;;;10407101;28;20030;-84
2022/06/03 00:17:28;;;;;;;12.82;7.85;;;11.00;99.90;;;;;;10389123;28;20045;-86
2022/06/03 00:22:52;;;;;;;11.98;8.07;;;11.10;99.90;;;;;;10382340;28;20072;-88
2022/06/03 00:28:08;;;;;;;8.95;6.70;;;10.90;99.90;;;;;;10397065;28;20607;-86
2022/06/03 00:33:57;;;;;;;13.05;6.88;;;10.70;99.90;;;;;;10403683;28;20022;-84
2022/06/03 00:39:16;;;;;;;8.40;6.15;;;10.70;99.90;;;;;;10369171;28;20073;-86
2022/06/03 00:44:38;;;;;;;10.67;6.60;;;10.70;99.90;;;;;;10405424;28;20040;-85
2022/06/03 00:50:16;;;;;;;9.82;7.20;;;10.70;99.90;;;;;;10476845;28;20577;-87
2022/06/03 00:55:54;;;;;;;9.52;7.57;;;10.70;99.90;;;;;;10476862;28;20044;-85
2022/06/03 01:01:04;;;;;;;10.63;7.27;;;10.70;99.90;;;;;;10487555;28;20047;-86
2022/06/03 01:06:21;;;;;;;9.60;7.30;;;10.60;99.90;;;;;;10487077;28;20032;-84
2022/06/03 01:11:30;;;;;;;11.98;8.10;;;10.60;99.90;;;;;;10482082;28;20029;-88
2022/06/03 01:16:50;;;;;;;13.03;7.97;;;10.60;99.90;;;;;;10470963;28;20487;-86
2022/06/03 01:22:22;;;;;;;13.15;7.60;;;10.40;99.90;;;;;;10481654;28;20036;-84
2022/06/03 01:27:41;;;;;;;8.17;6.70;;;10.30;99.90;;;;;;10479650;28;20568;-85
2022/06/03 01:33:07;;;;;;;12.20;7.60;;;10.20;99.90;;;;;;10476583;28;20026;-88
2022/06/03 01:38:45;;;;;;;9.50;7.63;;;10.10;99.90;;;;;;10477185;28;20377;-84
2022/06/03 01:44:25;;;;;;;9.13;6.57;;;10.10;99.90;;;;;;10472164;28;20279;-88
2022/06/03 01:49:57;;;;;;;14.73;7.73;;;9.90;99.90;;;;;;10499599;28;20060;-85
2022/06/03 01:55:07;;;;;;;9.23;7.03;;;9.90;99.90;;;;;;10475192;28;20090;-85
2022/06/03 02:00:34;;;;;;;9.97;7.07;;;9.80;99.90;;;;;;10486770;28;20028;-85
2022/06/03 02:06:02;;;;;;;10.37;7.23;;;9.70;99.90;;;;;;10475745;28;20082;-84
2022/06/03 02:11:09;;;;;;;8.47;6.43;;;9.60;99.90;;;;;;10481613;28;20033;-86
2022/06/03 02:16:31;;;;;;;8.03;6.60;;;9.70;99.90;;;;;;10487649;28;20044;-85
2022/06/03 02:21:45;;;;;;;10.23;7.37;;;9.70;99.90;;;;;;10481210;28;20035;-88
2022/06/03 02:26:52;;;;;;;10.27;7.30;;;9.80;99.90;;;;;;10483417;28;20025;-87
2022/06/03 02:32:14;;;;;;;9.40;6.40;;;9.80;99.90;;;;;;10481623;28;20057;-85
2022/06/03 02:37:33;;;;;;;8.80;6.17;;;9.80;99.90;;;;;;10479332;28;20040;-90
2022/06/03 02:42:53;;;;;;;9.77;6.53;;;9.70;99.90;;;;;;10487890;28;20043;-85
2022/06/03 02:48:12;;;;;;;8.27;6.33;;;9.60;99.90;;;;;;10484465;28;20060;-89
2022/06/03 02:53:34;;;;;;;11.13;6.90;;;9.60;99.90;;;;;;10472926;28;20035;-86
2022/06/03 02:59:24;;;;;;;10.13;6.47;;;9.60;99.90;;;;;;10480438;28;20037;-88
2022/06/03 03:04:49;;;;;;;9.87;6.77;;;9.60;99.90;;;;;;10487084;28;20032;-85
2022/06/03 03:10:14;;;;;;;9.20;7.13;;;9.50;99.90;;;;;;10490804;28;20027;-82
2022/06/03 03:15:45;;;;;;;9.70;7.40;;;9.50;99.90;;;;;;10494169;28;20507;-84
2022/06/03 03:21:08;;;;;;;9.93;7.30;;;9.60;99.90;;;;;;10489852;28;20583;-84
2022/06/03 03:26:24;;;;;;;10.57;6.80;;;9.60;99.90;;;;;;10489559;28;20033;-81
2022/06/03 03:31:47;;;;;;;9.17;6.40;;;9.70;99.90;;;;;;10489850;28;20077;-83
2022/06/03 03:37:09;;;;;;;8.80;7.40;;;9.70;99.90;;;;;;10491338;28;20033;-83
2022/06/03 03:43:01;;;;;;;9.63;6.60;;;9.80;99.90;;;;;;10491509;28;20047;-82
2022/06/03 03:48:26;;;;;;;7.77;6.93;;;9.90;99.90;;;;;;10469822;28;20058;-86
2022/06/03 03:53:52;;;;;;;9.23;6.73;;;9.90;99.90;;;;;;10486173;28;20040;-83
2022/06/03 03:59:11;;;;;;;11.47;7.10;;;10.00;99.90;;;;;;10439396;28;20053;-81
2022/06/03 04:05:01;;;;;;;11.63;7.60;;;10.20;99.90;;;;;;10485884;28;20036;-86
2022/06/03 04:10:28;;;;;;;9.20;6.75;;;10.40;99.90;;;;;;10450269;28;20110;-83
2022/06/03 04:15:38;;;;;;;9.10;7.50;;;10.60;99.90;;;;;;10481479;28;20093;-81
2022/06/03 04:21:06;;;;;;;8.35;6.65;;;10.80;99.90;;;;;;10491389;28;20388;-80
2022/06/03 04:26:22;;;;;;;9.77;6.55;;;10.90;99.90;;;;;;10477115;28;20051;-82
2022/06/03 04:31:32;;;;;;;9.02;6.65;;;11.00;99.90;;;;;;10488112;28;20035;-82
2022/06/03 04:36:39;;;;;;;9.50;6.45;;;11.30;99.90;;;;;;10471660;28;20037;-83
2022/06/03 04:42:01;;;;;;;13.88;7.68;;;11.40;99.90;;;;;;10490618;28;20727;-83
2022/06/03 04:47:32;;;;;;;10.00;6.90;;;11.70;99.90;;;;;;10488910;28;20114;-81
2022/06/03 04:53:05;;;;;;;9.80;6.85;;;12.00;99.90;;;;;;10489941;28;20464;-85
2022/06/03 04:58:20;;;;;;;8.80;5.90;;;12.30;99.90;;;;;;10455773;28;20045;-85
2022/06/03 05:03:24;;;;;;;8.70;6.37;;;12.40;99.90;;;;;;10489561;28;20020;-86
2022/06/03 05:09:02;;;;;;;8.27;5.15;;;12.70;99.90;;;;;;10490376;28;20032;-82
2022/06/03 05:14:03;;;;;;;9.63;6.03;;;13.00;99.90;;;;;;10486570;28;20047;-84
2022/06/03 05:19:25;;;;;;;8.52;5.00;;;13.40;99.90;;;;;;10488374;28;20028;-84
2022/06/03 05:25:13;;;;;;;6.97;4.63;;;13.60;99.90;;;;;;10462615;28;20032;-84
2022/06/03 05:30:38;;;;;;;6.13;4.10;;;13.90;99.90;;;;;;10445869;28;20074;-82
2022/06/03 05:35:51;;;;;;;7.83;3.93;;;14.20;99.90;;;;;;10489213;28;20045;-83
2022/06/03 05:42:23;;;;;;;4.07;3.30;;;14.40;99.90;;;;;;10487909;28;20098;-82
2022/06/03 05:46:57;;;;;;;6.35;3.70;;;14.70;99.90;;;;;;10487939;28;20501;-83
2022/06/03 05:52:34;;;;;;;3.80;3.40;;;15.00;99.90;;;;;;10487848;28;20074;-83
2022/06/03 05:57:58;;;;;;;4.90;3.42;;;15.30;99.90;;;;;;10478663;28;20040;-84
2022/06/03 06:03:20;;;;;;;8.98;4.22;;;15.60;99.90;;;;;;10469874;28;20032;-84
2022/06/03 06:08:38;;;;;;;6.68;3.53;;;15.90;99.90;;;;;;10480584;28;20044;-83
2022/06/03 06:13:45;;;;;;;5.00;3.17;;;16.20;97.70;;;;;;10482752;28;20028;-84
2022/06/03 06:19:22;;;;;;;4.40;2.90;;;16.40;95.10;;;;;;10479069;28;20040;-85
2022/06/03 06:24:35;;;;;;;5.22;2.42;;;16.70;94.80;;;;;;10476877;28;20074;-86
2022/06/03 06:29:57;;;;;;;4.65;2.15;;;17.00;92.10;;;;;;10475565;28;20040;-83
2022/06/03 06:35:23;;;;;;;4.10;2.10;;;17.40;92.10;;;;;;10483928;28;20491;-85
2022/06/03 06:40:51;;;;;;;4.93;2.03;;;17.70;91.30;;;;;;10489224;28;20051;-85
2022/06/03 06:46:01;;;;;;;2.50;1.95;;;17.90;89.20;;;;;;10488330;28;20114;-85
2022/06/03 06:51:24;;;;;;;3.28;1.77;;;18.40;88.90;;;;;;10488911;28;20055;-84
2022/06/03 06:56:47;;;;;;;3.88;2.10;;;19.30;86.40;;;;;;10484172;28;20496;-85
2022/06/03 07:01:58;;;;;;;4.05;2.05;;;20.70;85.20;;;;;;10490569;28;20503;-85
2022/06/03 07:07:14;;;;;;;4.80;2.47;;;22.50;81.70;;;;;;10487397;28;20141;-85
2022/06/03 07:12:14;;;;;;;;;;;23.70;75.30;;;;;;10492086;28;20119;-83
2022/06/03 07:23:27;;;;;;;3.80;1.80;;;25.10;69.70;;;;;;10488834;28;20021;-84
2022/06/03 07:28:38;;;;;;;3.92;1.52;;;25.50;69.50;;;;;;10489240;28;20044;-85
2022/06/03 07:33:57;;;;;;;3.22;1.50;;;25.80;66.10;;;;;;10488025;28;20035;-85
2022/06/03 07:39:11;;;;;;;1.50;1.30;;;26.00;65.00;;;;;;10480016;28;20063;-85
2022/06/03 07:44:12;;;;;;;3.45;1.73;;;26.10;65.60;;;;;;10488659;28;20032;-85
2022/06/03 07:49:16;;;;;;;2.35;1.73;;;26.00;65.10;;;;;;10490197;28;20399;-85
2022/06/03 07:54:29;;;;;;;3.60;1.58;;;25.30;65.20;;;;;;10485072;28;20031;-85
2022/06/03 07:59:33;;;;;;;3.58;1.60;;;24.90;64.40;;;;;;10488159;28;20024;-84
2022/06/03 08:04:36;;;;;;;2.17;1.90;;;24.60;65.00;;;;;;10488452;28;20075;-83
2022/06/03 08:14:56;;;;;;;2.05;1.52;;;24.20;63.10;;;;;;10485887;28;20040;-83
2022/06/03 08:19:57;;;;;;;1.42;1.27;;;24.20;62.80;;;;;;10486935;28;20021;-84
2022/06/03 08:24:59;;;;;;;1.80;1.40;;;24.30;63.90;;;;;;10488358;28;20062;-82
2022/06/03 08:30:17;;;;;;;2.03;1.42;;;24.50;63.70;;;;;;10487257;28;20029;-84
2022/06/03 08:35:24;;;;;;;3.15;1.70;;;24.60;62.50;;;;;;10486847;28;20063;-83
2022/06/03 08:41:02;;;;;;;2.10;1.50;;;24.60;63.50;;;;;;10485334;28;20024;-82
2022/06/03 08:46:18;;;;;;;2.50;2.20;;;24.80;60.30;;;;;;10486303;28;20507;-84
2022/06/03 08:51:37;;;;;;;1.83;1.73;;;25.20;60.50;;;;;;10485699;28;20031;-83
2022/06/03 08:56:42;;;;;;;4.57;2.10;;;25.30;59.70;;;;;;10483993;28;20031;-83
2022/06/03 09:01:45;;;;;;;1.95;1.40;;;25.20;61.00;;;;;;10487122;28;20020;-85
2022/06/03 09:07:10;;;;;;;2.30;1.90;;;25.30;61.00;;;;;;10485951;28;20373;-85
2022/06/03 09:12:25;;;;;;;2.75;1.60;;;25.70;58.50;;;;;;10484196;28;20076;-82
2022/06/03 09:17:31;;;;;;;1.50;1.40;;;25.50;60.00;;;;;;10483322;28;20036;-84
2022/06/03 09:22:32;;;;;;;3.90;2.30;;;25.70;60.10;;;;;;10484018;28;20799;-84
2022/06/03 09:27:35;;;;;;;4.47;1.88;;;25.90;59.30;;;;;;10483018;28;20036;-82
2022/06/03 09:32:45;;;;;;;1.92;1.70;;;25.60;61.60;;;;;;10487405;28;20025;-84
2022/06/03 09:37:49;;;;;;;4.35;1.90;;;25.60;62.10;;;;;;10483573;28;20097;-85
2022/06/03 09:42:56;;;;;;;4.03;1.90;;;26.00;60.50;;;;;;10481156;28;20115;-84
2022/06/03 09:48:00;;;;;;;3.97;1.80;;;25.90;58.60;;;;;;10484646;28;20326;-85
2022/06/03 09:53:05;;;;;;;1.60;1.50;;;25.50;55.10;;;;;;10485370;28;20059;-84
2022/06/03 09:58:08;;;;;;;;;;;25.50;60.90;;;;;;10483626;28;20139;-83
2022/06/03 10:03:10;;;;;;;3.08;1.83;;;25.80;61.50;;;;;;10484206;28;19911;-85
2022/06/03 10:08:12;;;;;;;3.33;1.80;;;26.00;59.50;;;;;;10481677;28;20024;-85
2022/06/03 10:13:16;;;;;;;1.95;1.75;;;25.90;57.20;;;;;;10481369;28;20031;-85
2022/06/03 10:18:22;;;;;;;3.20;1.87;;;26.10;60.30;;;;;;10481994;28;20036;-84
2022/06/03 10:23:27;;;;;;;4.57;1.90;;;26.40;61.30;;;;;;10483493;28;20039;-85
2022/06/03 10:28:36;;;;;;;2.33;1.95;;;26.50;60.00;;;;;;10481912;28;20082;-84
2022/06/03 10:33:37;;;;;;;4.68;2.10;;;26.50;57.10;;;;;;10482875;28;20677;-84
2022/06/03 10:38:38;;;;;;;2.67;2.00;;;26.10;58.40;;;;;;10485364;28;20043;-83
2022/06/03 10:43:41;;;;;;;1.98;1.85;;;25.90;60.20;;;;;;10482795;28;20078;-84
2022/06/03 10:48:43;;;;;;;4.80;2.10;;;26.10;57.90;;;;;;10480931;28;20048;-82
2022/06/03 11:04:46;;;;;;;6.78;2.10;;;26.50;61.00;;;;;;10477359;28;20029;-84
2022/06/03 11:09:59;;;;;;;2.53;2.00;;;26.80;58.30;;;;;;10485879;28;20031;-83
2022/06/03 11:14:59;;;;;;;2.65;2.05;;;27.00;57.10;;;;;;10481291;28;20036;-83
2022/06/03 11:20:01;;;;;;;2.13;1.63;;;26.50;55.60;;;;;;10472035;28;20039;-83
2022/06/03 11:25:21;;;;;;;2.75;1.45;;;26.50;59.80;;;;;;10482433;28;20085;-83
2022/06/03 11:30:43;;;;;;;10.82;2.35;;;26.90;58.40;;;;;;10481018;28;20029;-83
2022/06/03 11:36:11;;;;;;;2.70;1.70;;;26.90;57.70;;;;;;10483865;28;20401;-83
2022/06/03 11:41:19;;;;;;;1.77;1.67;;;27.30;57.80;;;;;;10486837;28;20033;-84
2022/06/03 11:46:27;;;;;;;4.47;1.60;;;27.50;57.20;;;;;;10481349;28;20416;-84
2022/06/03 11:51:28;;;;;;;2.35;1.67;;;27.60;58.20;;;;;;10488990;28;20016;-82
2022/06/03 11:56:33;;;;;;;2.17;1.55;;;27.70;56.60;;;;;;10491265;28;20033;-84
2022/06/03 12:01:49;;;;;;;2.80;1.48;;;27.70;56.60;;;;;;10481423;28;20490;-85
2022/06/03 12:06:55;;;;;;;3.45;1.60;;;27.80;54.50;;;;;;10481238;28;20025;-84
2022/06/03 12:17:48;;;;;;;5.57;1.83;;;28.00;57.50;;;;;;10473754;28;20048;-83
2022/06/03 12:22:49;;;;;;;3.08;1.92;;;28.10;58.80;;;;;;10481245;28;20048;-84
2022/06/03 12:27:52;;;;;;;2.78;1.52;;;27.90;53.70;;;;;;10490106;28;20028;-84
2022/06/03 12:32:58;;;;;;;2.95;1.90;;;27.60;55.20;;;;;;10480240;28;20059;-84
2022/06/03 12:38:20;;;;;;;2.22;1.50;;;27.70;53.10;;;;;;10471428;28;20546;-83
2022/06/03 12:43:29;;;;;;;6.80;2.00;;;27.70;52.80;;;;;;10481468;28;20116;-84
2022/06/03 12:48:51;;;;;;;2.08;1.88;;;27.60;55.40;;;;;;10485768;28;20518;-84
2022/06/03 12:54:14;;;;;;;2.15;2.00;;;27.80;55.90;;;;;;10485481;28;20023;-82
2022/06/03 12:59:32;;;;;;;1.70;1.60;;;28.10;55.80;;;;;;10486848;28;20060;-84
2022/06/03 13:04:38;;;;;;;3.08;1.90;;;28.40;55.30;;;;;;10483150;28;20020;-84
2022/06/03 13:10:04;;;;;;;3.45;1.95;;;28.40;55.40;;;;;;10495023;28;20031;-86
2022/06/03 13:15:16;;;;;;;2.45;1.88;;;28.00;54.10;;;;;;10490545;28;20033;-82
2022/06/03 13:20:44;;;;;;;2.72;1.95;;;27.90;55.50;;;;;;10510475;28;20028;-82
2022/06/03 13:25:54;;;;;;;2.58;1.67;;;27.40;53.50;;;;;;10494375;28;20032;-83
2022/06/03 13:31:08;;;;;;;2.63;1.80;;;26.80;52.70;;;;;;10506735;28;20020;-83
2022/06/03 13:36:11;;;;;;;2.95;1.80;;;26.20;53.40;;;;;;10509392;28;20036;-83
2022/06/03 13:46:49;;;;;;;2.40;2.10;;;26.50;60.10;;;;;;10474227;28;20127;-84
2022/06/03 13:52:09;;;;;;;3.30;1.73;;;26.40;56.60;;;;;;10499766;28;20436;-84
2022/06/03 13:57:16;;;;;;;2.22;1.92;;;26.50;56.40;;;;;;10497925;28;20135;-87
2022/06/03 14:02:38;;;;;;;2.22;1.73;;;26.30;57.40;;;;;;10488054;28;20040;-83
2022/06/03 14:07:42;;;;;;;3.35;1.88;;;26.00;55.80;;;;;;10500291;28;20056;-86
2022/06/03 14:13:22;;;;;;;2.70;1.63;;;26.00;56.60;;;;;;10487272;28;20480;-84
2022/06/03 14:18:43;;;;;;;3.05;2.10;;;26.00;55.40;;;;;;10416759;28;20049;-84
2022/06/03 14:23:46;;;;;;;2.50;2.03;;;26.00;58.00;;;;;;10475718;28;20454;-84
2022/06/03 14:28:56;;;;;;;2.20;2.00;;;26.00;56.70;;;;;;10485099;28;20024;-87
2022/06/03 14:34:04;;;;;;;5.20;3.15;;;25.90;57.60;;;;;;10474395;28;20502;-83
2022/06/03 14:39:11;;;;;;;4.22;2.38;;;25.60;56.20;;;;;;10471199;28;20025;-86
2022/06/03 14:44:17;;;;;;;3.75;2.00;;;25.40;55.90;;;;;;10472479;28;20021;-87
2022/06/03 14:49:33;;;;;;;4.90;2.13;;;25.30;56.10;;;;;;10479898;28;20094;-85
2022/06/03 14:54:39;;;;;;;3.30;2.50;;;25.20;57.20;;;;;;10475246;28;20040;-84
2022/06/03 14:59:49;;;;;;;3.80;2.15;;;25.20;58.30;;;;;;10481731;28;20028;-84
2022/06/03 15:04:57;;;;;;;3.17;2.58;;;25.30;56.60;;;;;;10487431;28;20017;-87
2022/06/03 15:10:05;;;;;;;2.95;1.92;;;25.20;57.20;;;;;;10491293;28;20154;-86
2022/06/03 15:15:06;;;;;;;3.72;2.90;;;25.10;55.30;;;;;;10490013;28;20060;-87
2022/06/03 15:20:10;;;;;;;2.70;2.50;;;25.00;58.60;;;;;;10491270;28;20058;-85
2022/06/03 15:25:33;;;;;;;2.13;1.93;;;25.00;58.40;;;;;;10487219;28;20056;-86
2022/06/03 15:30:37;;;;;;;4.10;3.22;;;24.80;56.30;;;;;;10482553;28;20055;-86
2022/06/03 15:35:39;;;;;;;3.20;2.58;;;24.70;58.20;;;;;;10485518;28;20086;-85
2022/06/03 15:40:41;;;;;;;4.85;2.35;;;24.70;57.00;;;;;;10489982;28;20025;-86
2022/06/03 15:45:47;;;;;;;2.50;2.30;;;24.60;57.10;;;;;;10484741;28;20467;-86
2022/06/03 15:51:03;;;;;;;3.55;2.38;;;24.50;58.90;;;;;;10481658;28;20073;-87
2022/06/03 15:56:31;;;;;;;4.53;2.55;;;24.40;58.00;;;;;;10489422;28;20040;-84
2022/06/03 16:02:02;;;;;;;4.93;2.30;;;24.40;60.40;;;;;;10476282;28;20048;-87
2022/06/03 16:07:17;;;;;;;6.60;2.80;;;24.30;57.70;;;;;;10478706;28;20036;-86
2022/06/03 16:12:29;;;;;;;3.97;2.47;;;24.20;59.40;;;;;;10486453;28;20028;-86
2022/06/03 16:17:44;;;;;;;4.55;2.70;;;24.20;59.80;;;;;;10482625;28;20036;-85
2022/06/03 16:23:03;;;;;;;3.37;2.60;;;24.10;60.50;;;;;;10484803;28;20046;-85
2022/06/03 16:28:06;;;;;;;2.95;2.60;;;24.00;59.10;;;;;;10485270;28;20357;-86
2022/06/03 16:33:26;;;;;;;3.67;2.45;;;23.90;59.60;;;;;;10482757;28;20039;-86
2022/06/03 16:38:46;;;;;;;5.10;2.72;;;23.90;61.80;;;;;;10471755;28;20029;-86
2022/06/03 16:44:00;;;;;;;2.65;2.28;;;23.80;62.60;;;;;;10494692;28;20035;-85
2022/06/03 16:49:30;;;;;;;3.40;2.78;;;23.70;63.20;;;;;;10494500;28;20462;-83
2022/06/03 16:54:34;;;;;;;6.32;2.83;;;23.60;63.50;;;;;;10477594;28;20051;-85
2022/06/03 16:59:36;;;;;;;2.92;2.60;;;23.50;63.50;;;;;;10487777;28;20027;-85
2022/06/03 17:04:43;;;;;;;4.63;2.58;;;23.50;64.40;;;;;;10478581;28;20016;-85
2022/06/03 17:09:47;;;;;;;5.10;2.92;;;23.40;65.10;;;;;;10499002;28;20475;-85
2022/06/03 17:14:49;;;;;;;5.13;2.75;;;23.30;66.40;;;;;;10484640;28;20040;-85
2022/06/03 17:20:04;;;;;;;5.57;3.05;;;23.20;65.90;;;;;;10487966;28;20193;-86
2022/06/03 17:25:33;;;;;;;3.72;2.90;;;22.90;69.40;;;;;;10492719;28;20387;-85
2022/06/03 17:30:37;;;;;;;4.00;2.72;;;22.40;69.30;;;;;;10482194;28;20414;-84
2022/06/03 17:35:56;;;;;;;3.40;3.10;;;22.00;70.40;;;;;;10476937;28;20599;-88
2022/06/03 17:41:07;;;;;;;4.25;3.00;;;21.90;69.00;;;;;;10492475;28;20028;-85
2022/06/03 17:46:32;;;;;;;4.30;2.60;;;21.90;68.50;;;;;;10482974;28;20086;-83
2022/06/03 17:57:28;;;;;;;3.85;2.83;;;21.80;68.50;;;;;;10482274;28;20514;-82
2022/06/03 18:02:35;;;;;;;3.22;2.80;;;21.50;69.00;;;;;;10482549;28;20071;-87
2022/06/03 18:07:39;;;;;;;2.67;2.45;;;21.30;70.50;;;;;;10479859;28;20031;-84
2022/06/03 18:12:55;;;;;;;2.88;2.67;;;21.20;70.10;;;;;;10481438;28;20029;-85
2022/06/03 18:18:02;;;;;;;3.47;2.60;;;21.00;72.00;;;;;;10481717;28;20097;-83
2022/06/03 18:23:31;;;;;;;4.90;3.13;;;20.80;73.50;;;;;;10467764;28;20032;-84
2022/06/03 18:28:43;;;;;;;3.92;3.10;;;20.40;75.80;;;;;;10486944;28;20067;-85
2022/06/03 18:34:15;;;;;;;4.03;3.30;;;20.10;74.40;;;;;;10477261;28;20388;-85
2022/06/03 18:39:27;;;;;;;4.30;3.53;;;19.90;76.50;;;;;;10484269;28;20028;-86
2022/06/03 18:44:38;;;;;;;4.35;3.88;;;19.70;76.40;;;;;;10490146;28;20124;-84
2022/06/03 18:49:48;;;;;;;6.20;3.97;;;19.50;76.50;;;;;;10483993;28;20407;-86
2022/06/03 18:55:03;;;;;;;6.88;4.13;;;19.30;77.40;;;;;;10490734;28;20127;-84
2022/06/03 19:00:17;;;;;;;5.65;4.32;;;19.10;78.40;;;;;;10486946;28;20032;-83
2022/06/03 19:05:40;;;;;;;6.50;4.22;;;18.90;79.20;;;;;;10487311;28;20032;-84
2022/06/03 19:11:13;;;;;;;5.63;3.85;;;18.70;80.80;;;;;;10485721;28;20028;-83
2022/06/03 19:16:22;;;;;;;7.53;4.50;;;18.40;81.50;;;;;;10497004;28;20049;-84
2022/06/03 19:21:58;;;;;;;10.75;4.35;;;18.20;82.80;;;;;;10501097;28;20029;-84
2022/06/03 19:26:59;;;;;;;6.00;3.80;;;18.00;82.50;;;;;;10486745;28;20047;-86
2022/06/03 19:32:04;;;;;;;5.75;4.38;;;17.90;82.30;;;;;;10488430;28;20534;-83
2022/06/03 19:37:18;;;;;;;7.33;4.93;;;17.80;84.00;;;;;;10498327;28;20039;-84
2022/06/03 19:42:47;;;;;;;5.68;4.60;;;17.70;83.70;;;;;;10472900;28;20025;-84
2022/06/03 19:47:52;;;;;;;13.38;8.18;;;17.70;83.30;;;;;;10478893;28;20045;-85
2022/06/03 19:53:03;;;;;;;19.48;10.25;;;17.80;82.90;;;;;;10484399;28;20021;-85
2022/06/03 19:58:13;;;;;;;8.35;5.82;;;17.90;83.00;;;;;;10482273;28;20098;-83
2022/06/03 20:03:40;;;;;;;7.68;5.00;;;17.90;82.20;;;;;;10480417;28;20642;-85
2022/06/03 20:09:00;;;;;;;6.72;5.05;;;17.90;82.30;;;;;;10483065;28;20125;-86
2022/06/03 20:14:06;;;;;;;6.60;4.90;;;17.90;82.00;;;;;;10476840;28;20082;-86
2022/06/03 20:19:16;;;;;;;6.13;5.05;;;17.90;81.60;;;;;;10480368;28;20040;-88
2022/06/03 20:24:32;;;;;;;8.02;4.82;;;17.90;81.80;;;;;;10490730;23;20024;-84
2022/06/03 20:29:58;;;;;;;8.48;5.00;;;17.90;82.20;;;;;;10415046;28;20068;-84
2022/06/03 20:35:22;;;;;;;8.85;5.32;;;17.90;82.30;;;;;;10425894;28;20043;-84
2022/06/03 20:40:38;;;;;;;7.55;5.40;;;17.80;82.00;;;;;;10418208;28;20148;-85
2022/06/03 20:45:44;;;;;;;;;;;17.90;82.00;;;;;;10432222;28;20025;-86
2022/06/03 20:51:01;;;;;;;8.55;4.93;;;17.80;82.30;;;;;;10438371;28;19909;-86
2022/06/03 20:56:08;;;;;;;7.53;4.80;;;17.80;82.20;;;;;;10431652;28;20030;-86
2022/06/03 21:01:11;;;;;;;5.82;4.30;;;17.80;82.00;;;;;;10421166;28;20490;-85
2022/06/03 21:16:51;;;;;;;5.10;3.90;;;17.80;81.30;;;;;;10415975;28;20053;-86
2022/06/03 21:22:30;;;;;;;6.97;4.25;;;17.80;81.60;;;;;;10416206;28;20033;-86
2022/06/03 21:27:33;;;;;;;7.68;4.85;;;17.70;81.40;;;;;;10430614;28;20061;-85
2022/06/03 21:32:59;;;;;;;6.55;4.05;;;17.80;81.20;;;;;;10420505;28;20460;-86
2022/06/03 21:38:14;;;;;;;7.03;4.00;;;17.70;81.50;;;;;;10427433;28;20041;-87
2022/06/03 21:43:25;;;;;;;5.13;4.10;;;17.70;81.70;;;;;;10426678;28;20025;-86
2022/06/03 21:48:32;;;;;;;5.30;3.90;;;17.70;81.00;;;;;;10431874;28;20029;-87
2022/06/03 21:53:54;;;;;;;4.68;3.85;;;17.70;80.90;;;;;;10427496;28;20025;-87
2022/06/03 21:59:18;;;;;;;4.40;3.88;;;17.70;80.80;;;;;;10436209;28;20643;-86
2022/06/03 22:04:20;;;;;;;6.07;3.85;;;17.70;80.60;;;;;;10427424;28;20547;-87
2022/06/03 22:09:21;;;;;;;5.40;3.95;;;17.70;80.30;;;;;;10439213;28;20607;-87
2022/06/03 22:14:28;;;;;;;8.52;3.80;;;17.70;80.60;;;;;;10430801;28;20124;-87
2022/06/03 22:19:29;;;;;;;5.25;3.85;;;17.60;80.70;;;;;;10423143;28;20045;-85
2022/06/03 22:24:30;;;;;;;4.47;3.70;;;17.50;80.40;;;;;;10424477;28;20041;-85
2022/06/03 22:29:34;;;;;;;5.85;3.88;;;17.50;80.90;;;;;;10432119;28;20040;-86
2022/06/03 22:34:53;;;;;;;5.18;3.70;;;17.40;80.60;;;;;;10418781;28;20409;-85
2022/06/03 22:40:02;;;;;;;5.13;3.70;;;17.50;80.90;;;;;;10427819;28;20021;-85
2022/06/03 22:45:03;;;;;;;6.32;3.88;;;17.40;80.90;;;;;;10429030;28;20041;-87
2022/06/03 22:50:04;;;;;;;4.00;3.60;;;17.30;81.20;;;;;;10427730;28;20408;-86
2022/06/03 22:55:06;;;;;;;4.75;3.25;;;17.20;80.90;;;;;;10426970;28;20036;-85
2022/06/03 23:00:08;;;;;;;4.90;3.47;;;17.20;81.50;;;;;;10432011;28;20033;-87
2022/06/03 23:05:12;;;;;;;6.30;3.70;;;17.10;81.50;;;;;;10427828;28;20102;-89
2022/06/03 23:10:13;;;;;;;6.63;3.92;;;17.10;82.40;;;;;;10403624;28;20051;-87
2022/06/03 23:15:14;;;;;;;4.20;3.22;;;17.00;82.60;;;;;;10442426;28;20029;-86
2022/06/03 23:20:33;;;;;;;4.55;3.40;;;17.00;82.30;;;;;;10437959;28;20035;-86
2022/06/03 23:25:34;;;;;;;3.63;3.20;;;17.00;81.60;;;;;;10438148;28;20095;-86
2022/06/03 23:30:35;;;;;;;5.47;3.80;;;17.00;81.50;;;;;;10424607;28;20473;-87
2022/06/03 23:35:37;;;;;;;4.78;3.70;;;17.10;82.20;;;;;;10417287;28;20044;-86
2022/06/03 23:40:38;;;;;;;3.90;3.30;;;17.00;82.40;;;;;;10426933;28;20076;-85
2022/06/03 23:45:38;;;;;;;3.92;3.10;;;16.90;82.50;;;;;;10432461;28;20025;-86
2022/06/03 23:50:42;;;;;;;5.68;3.60;;;16.90;84.00;;;;;;10425232;28;20040;-85
2022/06/03 23:55:43;;;;;;;4.95;3.30;;;16.90;83.50;;;;;;10422661;28;20072;-83
